createdAt,value
2019-01-09T00:01:01.634Z,3.17
2019-01-09T00:03:06.779Z,3.23
2019-01-09T00:05:11.525Z,3.30
2019-01-09T00:07:16.671Z,3.37
2019-01-09T00:09:27.918Z,2.77
2019-01-09T00:11:32.665Z,2.70
2019-01-09T00:13:37.433Z,3.13
2019-01-09T00:15:42.299Z,2.90
2019-01-09T00:17:47.414Z,3.17
2019-01-09T00:19:52.135Z,3.20
2019-01-09T00:21:56.957Z,3.13
2019-01-09T00:24:02.711Z,2.90
2019-01-09T00:26:07.842Z,3.60
2019-01-09T00:28:12.787Z,2.90
2019-01-09T00:30:18.145Z,3.60
2019-01-09T00:32:22.889Z,3.53
2019-01-09T00:34:27.676Z,3.10
2019-01-09T00:36:32.598Z,3.13
2019-01-09T00:38:37.663Z,3.17
2019-01-09T00:40:42.936Z,2.50
2019-01-09T00:42:48.189Z,3.63
2019-01-09T00:44:53.055Z,3.20
2019-01-09T00:46:57.831Z,3.10
2019-01-09T00:49:02.567Z,3.27
2019-01-09T00:51:07.872Z,3.40
2019-01-09T00:53:12.634Z,3.20
2019-01-09T00:55:17.746Z,3.70
2019-01-09T00:57:23.079Z,3.37
2019-01-09T00:59:27.886Z,3.20
2019-01-09T01:01:32.747Z,3.07
2019-01-09T01:04:11.589Z,2.37
2019-01-09T01:07:27.511Z,3.00
2019-01-09T01:10:18.043Z,3.40
2019-01-09T01:13:09.938Z,4.37
2019-01-09T01:16:07.963Z,3.50
2019-01-09T01:19:20.948Z,3.47
2019-01-09T01:21:31.137Z,2.73
2019-01-09T01:24:11.455Z,2.53
2019-01-09T01:26:49.804Z,2.80
2019-01-09T01:30:00.275Z,2.70
2019-01-09T01:32:22.104Z,3.10
2019-01-09T01:34:56.614Z,3.40
2019-01-09T01:37:43.821Z,3.33
2019-01-09T01:40:22.635Z,3.27
2019-01-09T01:43:23.887Z,2.07
2019-01-09T01:46:09.371Z,2.47
2019-01-09T01:48:47.950Z,2.33
2019-01-09T01:51:40.528Z,2.57
2019-01-09T01:54:18.169Z,1.70
2019-01-09T01:56:51.073Z,1.93
2019-01-09T01:59:45.742Z,2.40
2019-01-09T02:02:37.313Z,2.20
2019-01-09T02:05:09.950Z,2.10
2019-01-09T02:07:57.982Z,2.30
2019-01-09T02:10:29.081Z,2.00
2019-01-09T02:13:04.118Z,2.40
2019-01-09T02:15:56.437Z,2.20
2019-01-09T02:18:34.183Z,2.43
2019-01-09T02:21:21.994Z,2.00
2019-01-09T02:23:49.012Z,2.17
2019-01-09T02:26:19.331Z,1.70
2019-01-09T02:28:38.141Z,2.40
2019-01-09T02:31:42.164Z,2.03
2019-01-09T02:33:46.947Z,2.10
2019-01-09T02:35:52.175Z,1.87
2019-01-09T02:37:56.960Z,2.13
2019-01-09T02:40:02.243Z,2.47
2019-01-09T02:42:07.125Z,3.00
2019-01-09T02:44:11.972Z,2.33
2019-01-09T02:46:16.768Z,2.20
2019-01-09T02:48:21.529Z,2.33
2019-01-09T02:50:26.752Z,3.20
2019-01-09T02:52:31.545Z,2.27
2019-01-09T02:54:36.932Z,2.03
2019-01-09T02:56:41.673Z,2.03
2019-01-09T02:58:46.603Z,2.30
2019-01-09T03:00:51.336Z,2.03
2019-01-09T03:02:56.072Z,2.43
2019-01-09T03:05:01.055Z,1.80
2019-01-09T03:07:05.800Z,2.00
2019-01-09T03:09:10.691Z,2.17
2019-01-09T03:11:15.491Z,2.00
2019-01-09T03:13:20.276Z,1.93
2019-01-09T03:15:25.102Z,2.07
2019-01-09T03:17:29.814Z,1.90
2019-01-09T03:19:34.548Z,2.50
2019-01-09T03:21:39.649Z,2.40
2019-01-09T03:23:44.362Z,2.40
2019-01-09T03:25:49.940Z,2.10
2019-01-09T03:27:54.738Z,1.70
2019-01-09T03:29:59.687Z,1.87
2019-01-09T03:32:04.451Z,2.30
2019-01-09T03:34:09.129Z,2.10
2019-01-09T03:36:13.923Z,1.60
2019-01-09T03:38:18.863Z,1.97
2019-01-09T03:40:23.609Z,2.20
2019-01-09T03:42:28.462Z,1.93
2019-01-09T03:44:33.171Z,2.37
2019-01-09T03:46:38.184Z,2.20
2019-01-09T03:48:43.275Z,1.90
2019-01-09T03:50:48.026Z,2.30
2019-01-09T03:52:52.744Z,1.60
2019-01-09T03:54:58.012Z,1.60
2019-01-09T03:57:02.917Z,1.80
2019-01-09T03:59:07.667Z,1.40
2019-01-09T04:01:12.545Z,1.30
2019-01-09T04:03:17.364Z,1.40
2019-01-09T04:05:22.246Z,2.07
2019-01-09T04:07:27.024Z,1.70
2019-01-09T04:09:32.288Z,1.73
2019-01-09T04:11:37.083Z,1.60
2019-01-09T04:13:41.992Z,1.50
2019-01-09T04:15:47.737Z,2.10
2019-01-09T04:17:52.522Z,2.53
2019-01-09T04:19:57.741Z,1.73
2019-01-09T04:22:02.474Z,1.73
2019-01-09T04:24:07.219Z,1.90
2019-01-09T04:26:12.537Z,1.70
2019-01-09T04:28:17.292Z,1.37
2019-01-09T04:30:22.297Z,2.00
2019-01-09T04:32:27.940Z,1.77
2019-01-09T04:34:32.756Z,1.60
2019-01-09T04:36:37.674Z,2.13
2019-01-09T04:38:42.459Z,1.83
2019-01-09T04:40:47.731Z,1.97
2019-01-09T04:42:53.554Z,1.80
2019-01-09T04:44:58.242Z,1.83
2019-01-09T04:47:05.268Z,1.93
2019-01-09T04:49:13.016Z,1.57
2019-01-09T04:51:17.767Z,1.70
2019-01-09T04:53:22.842Z,2.30
2019-01-09T04:55:33.788Z,2.40
2019-01-09T04:57:38.507Z,2.27
2019-01-09T04:59:43.295Z,1.60
2019-01-09T05:01:48.205Z,1.70
2019-01-09T05:03:53.279Z,2.40
2019-01-09T05:05:58.077Z,2.10
2019-01-09T05:08:02.957Z,1.63
2019-01-09T05:10:08.050Z,1.97
2019-01-09T05:12:13.238Z,1.77
2019-01-09T05:14:18.315Z,1.40
2019-01-09T05:16:23.356Z,2.47
2019-01-09T05:18:28.517Z,1.27
2019-01-09T05:20:40.351Z,1.20
2019-01-09T05:23:02.505Z,1.40
2019-01-09T05:25:07.726Z,1.40
2019-01-09T05:27:12.564Z,1.77
2019-01-09T05:29:20.422Z,1.73
2019-01-09T05:31:25.549Z,1.57
2019-01-09T05:33:30.220Z,1.70
2019-01-09T05:35:35.496Z,1.53
2019-01-09T05:37:40.636Z,1.60
2019-01-09T05:39:58.374Z,1.70
2019-01-09T05:42:03.221Z,1.70
2019-01-09T05:44:07.929Z,1.70
2019-01-09T05:46:12.696Z,1.63
2019-01-09T05:48:17.553Z,2.23
2019-01-09T05:50:22.483Z,2.00
2019-01-09T05:52:27.532Z,1.63
2019-01-09T05:54:33.055Z,1.90
2019-01-09T05:56:37.805Z,2.33
2019-01-09T05:58:43.601Z,2.40
2019-01-09T06:00:48.351Z,1.53
2019-01-09T06:02:54.740Z,2.00
2019-01-09T06:04:59.564Z,1.87
2019-01-09T06:07:05.012Z,2.40
2019-01-09T06:09:09.928Z,2.30
2019-01-09T06:11:14.716Z,2.43
2019-01-09T06:13:19.638Z,2.40
2019-01-09T06:15:24.905Z,2.57
2019-01-09T06:17:30.916Z,4.07
2019-01-09T06:19:39.711Z,2.10
2019-01-09T06:21:44.547Z,2.90
2019-01-09T06:23:49.280Z,2.63
2019-01-09T06:25:54.080Z,2.80
2019-01-09T06:27:59.476Z,2.07
2019-01-09T06:30:04.428Z,2.50
2019-01-09T06:32:09.675Z,3.27
2019-01-09T06:34:14.438Z,2.73
2019-01-09T06:36:19.279Z,2.63
2019-01-09T06:38:24.090Z,2.90
2019-01-09T06:40:28.820Z,2.70
2019-01-09T06:42:34.165Z,2.63
2019-01-09T06:44:39.253Z,3.27
2019-01-09T06:46:44.064Z,11.60
2019-01-09T06:48:49.066Z,7.60
2019-01-09T06:50:53.890Z,15.00
2019-01-09T06:52:58.743Z,9.13
2019-01-09T06:55:03.557Z,3.37
2019-01-09T06:57:08.704Z,3.00
2019-01-09T06:59:14.068Z,2.40
2019-01-09T07:01:19.158Z,3.90
2019-01-09T07:03:23.965Z,3.27
2019-01-09T07:05:28.832Z,4.13
2019-01-09T07:07:36.064Z,4.07
2019-01-09T07:09:40.824Z,4.00
2019-01-09T07:11:45.947Z,2.13
2019-01-09T07:13:51.097Z,3.13
2019-01-09T07:15:58.414Z,2.47
2019-01-09T07:18:03.231Z,3.17
2019-01-09T07:20:08.165Z,2.90
2019-01-09T07:22:12.928Z,3.10
2019-01-09T07:24:18.028Z,3.63
2019-01-09T07:26:23.319Z,2.40
2019-01-09T07:28:28.064Z,2.20
2019-01-09T07:30:32.812Z,3.23
2019-01-09T07:32:37.754Z,2.90
2019-01-09T07:34:42.447Z,3.00
2019-01-09T07:36:48.206Z,3.00
2019-01-09T07:38:52.961Z,3.93
2019-01-09T07:40:58.121Z,3.83
2019-01-09T07:43:02.959Z,4.23
2019-01-09T07:45:08.899Z,2.77
2019-01-09T07:47:13.651Z,3.50
2019-01-09T07:49:18.736Z,4.53
2019-01-09T07:51:23.555Z,3.13
2019-01-09T07:53:28.359Z,3.37
2019-01-09T07:55:33.218Z,5.37
2019-01-09T07:57:38.066Z,4.07
2019-01-09T07:59:45.372Z,8.77
2019-01-09T08:01:50.717Z,8.57
2019-01-09T08:03:55.530Z,9.33
2019-01-09T08:06:00.346Z,14.70
2019-01-09T08:08:05.465Z,19.13
2019-01-09T08:10:11.421Z,4.73
2019-01-09T08:12:16.143Z,4.10
2019-01-09T08:14:20.914Z,8.10
2019-01-09T08:16:25.622Z,5.73
2019-01-09T08:18:30.703Z,5.10
2019-01-09T08:20:35.852Z,8.90
2019-01-09T08:22:40.974Z,5.37
2019-01-09T08:24:46.737Z,5.40
2019-01-09T08:26:51.955Z,4.90
2019-01-09T08:28:56.613Z,3.87
2019-01-09T08:31:01.336Z,4.93
2019-01-09T08:33:06.600Z,4.50
2019-01-09T08:35:11.772Z,5.00
2019-01-09T08:37:19.124Z,6.00
2019-01-09T08:39:24.002Z,8.73
2019-01-09T08:41:28.900Z,5.10
2019-01-09T08:43:33.638Z,3.67
2019-01-09T08:45:38.398Z,5.83
2019-01-09T08:47:43.605Z,4.50
2019-01-09T08:49:48.723Z,6.93
2019-01-09T08:51:53.650Z,3.90
2019-01-09T08:53:58.366Z,5.50
2019-01-09T08:56:03.131Z,3.73
2019-01-09T08:58:07.912Z,4.10
2019-01-09T09:00:13.197Z,3.13
2019-01-09T09:02:17.980Z,3.03
2019-01-09T09:04:22.731Z,3.00
2019-01-09T09:06:27.466Z,3.30
2019-01-09T09:08:33.446Z,3.20
2019-01-09T09:10:38.550Z,3.00
2019-01-09T09:12:43.764Z,2.87
2019-01-09T09:14:48.579Z,3.03
2019-01-09T09:16:53.305Z,2.63
2019-01-09T09:18:58.134Z,3.20
2019-01-09T09:21:02.891Z,3.63
2019-01-09T09:23:07.677Z,2.83
2019-01-09T09:25:12.441Z,3.17
2019-01-09T09:27:17.194Z,3.90
2019-01-09T09:29:22.375Z,3.17
2019-01-09T09:31:27.597Z,3.30
2019-01-09T09:33:32.343Z,2.93
2019-01-09T09:35:37.091Z,3.33
2019-01-09T09:37:41.839Z,3.63
2019-01-09T09:39:46.731Z,3.43
2019-01-09T09:41:51.950Z,3.87
2019-01-09T09:43:56.703Z,3.60
2019-01-09T09:46:01.597Z,3.70
2019-01-09T09:48:06.551Z,3.50
2019-01-09T09:50:13.242Z,4.50
2019-01-09T09:52:17.999Z,3.50
2019-01-09T09:54:23.448Z,3.80
2019-01-09T09:56:28.361Z,3.67
2019-01-09T09:58:33.112Z,3.40
2019-01-09T10:00:38.193Z,3.87
2019-01-09T10:02:43.019Z,3.87
2019-01-09T10:04:48.003Z,3.67
2019-01-09T10:06:52.846Z,4.10
2019-01-09T10:08:57.626Z,3.33
2019-01-09T10:11:02.335Z,4.03
2019-01-09T10:13:10.554Z,4.10
2019-01-09T10:15:15.944Z,3.40
2019-01-09T10:17:20.800Z,3.63
2019-01-09T10:19:26.095Z,3.57
2019-01-09T10:21:30.880Z,3.13
2019-01-09T10:23:38.317Z,4.13
2019-01-09T10:25:43.509Z,3.67
2019-01-09T10:27:48.285Z,3.47
2019-01-09T10:29:53.066Z,3.80
2019-01-09T10:32:00.939Z,3.77
2019-01-09T10:34:09.085Z,4.03
2019-01-09T10:36:13.954Z,4.40
2019-01-09T10:38:19.155Z,4.40
2019-01-09T10:40:24.543Z,4.97
2019-01-09T10:42:29.271Z,4.63
2019-01-09T10:44:34.715Z,4.40
2019-01-09T10:46:39.517Z,8.13
2019-01-09T10:48:44.320Z,6.87
2019-01-09T10:50:49.094Z,6.40
2019-01-09T10:52:53.903Z,5.47
2019-01-09T10:54:59.005Z,5.73
2019-01-09T10:57:03.787Z,4.73
2019-01-09T10:59:07.940Z,4.20
2019-01-09T11:01:14.965Z,5.37
2019-01-09T11:03:19.714Z,7.30
2019-01-09T11:05:24.694Z,6.30
2019-01-09T11:07:29.623Z,5.40
2019-01-09T11:09:36.707Z,6.87
2019-01-09T11:11:41.880Z,7.53
2019-01-09T11:13:46.663Z,6.77
2019-01-09T11:15:52.411Z,7.60
2019-01-09T11:17:57.145Z,6.23
2019-01-09T11:20:01.998Z,5.17
2019-01-09T11:22:07.196Z,5.77
2019-01-09T11:24:12.392Z,5.33
2019-01-09T11:26:17.243Z,4.50
2019-01-09T11:28:22.144Z,4.67
2019-01-09T11:30:27.019Z,5.43
2019-01-09T11:32:34.150Z,4.50
2019-01-09T11:34:38.925Z,4.00
2019-01-09T11:36:43.732Z,4.23
2019-01-09T11:38:55.614Z,3.57
2019-01-09T11:40:57.724Z,3.47
2019-01-09T11:43:03.724Z,3.27
2019-01-09T11:45:10.862Z,2.90
2019-01-09T11:47:15.669Z,4.03
2019-01-09T11:49:20.812Z,5.03
2019-01-09T11:51:25.601Z,4.10
2019-01-09T11:53:33.812Z,3.50
2019-01-09T11:55:38.643Z,4.63
2019-01-09T11:57:44.016Z,3.17
2019-01-09T11:59:48.790Z,2.70
2019-01-09T12:01:53.614Z,5.73
2019-01-09T12:03:58.802Z,3.10
2019-01-09T12:06:03.580Z,3.83
2019-01-09T12:08:08.969Z,2.90
2019-01-09T12:10:15.070Z,4.97
2019-01-09T12:12:19.843Z,4.87
2019-01-09T12:14:24.600Z,2.83
2019-01-09T12:16:29.366Z,2.70
2019-01-09T12:18:34.312Z,2.30
2019-01-09T12:20:39.038Z,2.83
2019-01-09T12:22:43.935Z,3.37
2019-01-09T12:24:48.673Z,3.10
2019-01-09T12:26:53.406Z,4.40
2019-01-09T12:28:58.246Z,4.57
2019-01-09T12:31:03.394Z,3.40
2019-01-09T12:33:08.640Z,3.23
2019-01-09T12:35:16.242Z,2.00
2019-01-09T12:37:21.119Z,2.37
2019-01-09T12:39:26.281Z,2.90
2019-01-09T12:41:30.957Z,2.67
2019-01-09T12:43:35.854Z,2.70
2019-01-09T12:45:40.635Z,2.03
2019-01-09T12:47:45.817Z,2.83
2019-01-09T12:49:50.614Z,2.53
2019-01-09T12:51:55.325Z,3.13
2019-01-09T12:54:00.013Z,2.53
2019-01-09T12:56:04.775Z,2.90
2019-01-09T12:58:09.527Z,2.57
2019-01-09T13:00:20.724Z,3.03
2019-01-09T13:02:25.471Z,4.03
2019-01-09T13:04:30.174Z,2.70
2019-01-09T13:06:34.900Z,2.43
2019-01-09T13:08:39.595Z,2.10
2019-01-09T13:10:44.307Z,2.13
2019-01-09T13:12:49.026Z,2.10
2019-01-09T13:14:53.911Z,2.30
2019-01-09T13:16:58.645Z,2.23
2019-01-09T13:19:03.433Z,2.10
2019-01-09T13:21:08.372Z,2.50
2019-01-09T13:23:13.574Z,2.20
2019-01-09T13:25:19.913Z,2.50
2019-01-09T13:27:24.796Z,2.13
2019-01-09T13:29:29.805Z,2.40
2019-01-09T13:31:51.169Z,2.30
2019-01-09T13:33:56.603Z,1.70
2019-01-09T13:36:01.751Z,2.20
2019-01-09T13:38:06.513Z,2.03
2019-01-09T13:40:14.870Z,2.00
2019-01-09T13:42:22.461Z,2.33
2019-01-09T13:44:27.341Z,1.43
2019-01-09T13:46:32.076Z,2.07
2019-01-09T13:48:37.036Z,2.00
2019-01-09T13:50:41.806Z,1.47
2019-01-09T13:52:47.157Z,1.70
2019-01-09T13:54:51.935Z,2.40
2019-01-09T13:56:56.691Z,2.37
2019-01-09T13:59:02.092Z,2.20
2019-01-09T14:01:07.308Z,2.03
2019-01-09T14:03:13.391Z,1.70
2019-01-09T14:05:18.301Z,1.60
2019-01-09T14:07:23.280Z,1.80
2019-01-09T14:09:28.062Z,1.60
2019-01-09T14:11:33.542Z,1.50
2019-01-09T14:13:38.333Z,1.57
2019-01-09T14:15:44.025Z,1.57
2019-01-09T14:17:49.457Z,3.13
2019-01-09T14:19:56.999Z,1.90
2019-01-09T14:22:01.719Z,2.20
2019-01-09T14:24:08.661Z,1.70
2019-01-09T14:26:13.535Z,1.80
2019-01-09T14:28:18.685Z,2.13
2019-01-09T14:30:30.309Z,1.77
2019-01-09T14:32:35.548Z,1.60
2019-01-09T14:34:41.934Z,1.83
2019-01-09T14:36:47.444Z,2.17
2019-01-09T14:38:52.214Z,1.73
2019-01-09T14:40:58.449Z,1.37
2019-01-09T14:43:03.319Z,2.10
2019-01-09T14:45:08.999Z,1.97
2019-01-09T14:47:13.811Z,1.80
2019-01-09T14:49:18.575Z,2.10
2019-01-09T14:51:23.419Z,1.70
2019-01-09T14:53:29.690Z,2.27
2019-01-09T14:55:34.495Z,1.90
2019-01-09T14:57:40.796Z,2.27
2019-01-09T14:59:45.593Z,2.30
2019-01-09T15:01:50.334Z,1.70
2019-01-09T15:03:55.234Z,2.03
2019-01-09T15:06:00.028Z,1.83
2019-01-09T15:08:05.218Z,2.40
2019-01-09T15:10:13.203Z,1.60
2019-01-09T15:12:18.014Z,2.50
2019-01-09T15:14:22.786Z,1.47
2019-01-09T15:16:30.891Z,2.27
2019-01-09T15:18:35.810Z,1.90
2019-01-09T15:20:41.021Z,2.80
2019-01-09T15:22:46.709Z,2.30
2019-01-09T15:24:51.653Z,1.90
2019-01-09T15:26:56.532Z,2.00
2019-01-09T15:29:07.669Z,2.20
2019-01-09T15:31:13.344Z,2.20
2019-01-09T15:33:18.371Z,2.57
2019-01-09T15:35:23.281Z,2.17
2019-01-09T15:37:28.476Z,1.77
2019-01-09T15:39:33.343Z,1.90
2019-01-09T15:41:38.439Z,1.60
2019-01-09T15:43:43.646Z,2.03
2019-01-09T15:45:48.408Z,2.10
2019-01-09T15:47:53.187Z,2.27
2019-01-09T15:49:58.391Z,1.90
2019-01-09T15:52:03.461Z,2.27
2019-01-09T15:54:08.187Z,6.43
2019-01-09T15:56:12.955Z,4.30
2019-01-09T15:58:17.871Z,3.50
2019-01-09T16:00:31.083Z,2.60
2019-01-09T16:02:36.063Z,2.10
2019-01-09T16:04:41.895Z,2.67
2019-01-09T16:06:46.688Z,2.50
2019-01-09T16:08:51.521Z,3.50
2019-01-09T16:10:57.003Z,2.80
2019-01-09T16:13:01.921Z,2.80
2019-01-09T16:15:10.746Z,3.27
2019-01-09T16:17:15.680Z,3.20
2019-01-09T16:19:20.955Z,3.10
2019-01-09T16:21:26.147Z,2.43
2019-01-09T16:23:30.932Z,2.77
2019-01-09T16:25:35.690Z,2.97
2019-01-09T16:27:40.543Z,3.13
2019-01-09T16:29:45.303Z,3.50
2019-01-09T16:31:50.089Z,2.93
2019-01-09T16:33:55.266Z,2.83
2019-01-09T16:36:02.105Z,2.70
2019-01-09T16:38:07.174Z,2.40
2019-01-09T16:40:12.717Z,2.83
2019-01-09T16:42:17.474Z,2.87
2019-01-09T16:44:22.320Z,2.30
2019-01-09T16:46:27.152Z,2.80
2019-01-09T16:48:31.950Z,2.50
2019-01-09T16:50:37.960Z,2.10
2019-01-09T16:52:45.678Z,2.50
2019-01-09T16:54:50.744Z,2.70
2019-01-09T16:56:55.542Z,4.03
2019-01-09T16:59:00.382Z,2.87
2019-01-09T17:01:05.677Z,3.63
2019-01-09T17:03:10.365Z,2.37
2019-01-09T17:05:15.732Z,3.37
2019-01-09T17:07:20.439Z,2.43
2019-01-09T17:09:25.172Z,2.40
2019-01-09T17:11:29.962Z,3.20
2019-01-09T17:13:34.801Z,2.83
2019-01-09T17:15:42.756Z,3.80
2019-01-09T17:17:47.569Z,3.50
2019-01-09T17:19:52.711Z,2.90
2019-01-09T17:21:57.460Z,3.03
2019-01-09T17:24:02.724Z,3.03
2019-01-09T17:26:07.563Z,2.60
2019-01-09T17:28:12.825Z,2.40
2019-01-09T17:30:20.804Z,2.43
2019-01-09T17:32:25.612Z,2.67
2019-01-09T17:34:30.903Z,2.30
2019-01-09T17:36:35.729Z,2.60
2019-01-09T17:38:40.550Z,2.67
2019-01-09T17:40:47.799Z,1.93
2019-01-09T17:42:52.638Z,2.77
2019-01-09T17:45:15.019Z,3.20
2019-01-09T17:47:19.925Z,2.10
2019-01-09T17:49:32.387Z,2.67
2019-01-09T17:51:41.484Z,2.53
2019-01-09T17:53:58.139Z,3.67
2019-01-09T17:56:17.486Z,3.47
2019-01-09T17:58:23.688Z,2.70
2019-01-09T18:00:33.512Z,2.63
2019-01-09T18:02:39.414Z,2.50
2019-01-09T18:04:44.878Z,3.30
2019-01-09T18:07:00.156Z,2.47
2019-01-09T18:09:17.778Z,3.10
2019-01-09T18:11:33.229Z,3.50
2019-01-09T18:13:38.114Z,2.60
2019-01-09T18:15:45.687Z,2.97
2019-01-09T18:17:54.183Z,6.50
2019-01-09T18:20:10.190Z,3.60
2019-01-09T18:22:19.894Z,3.17
2019-01-09T18:24:34.473Z,2.50
2019-01-09T18:26:57.530Z,2.73
2019-01-09T18:29:03.319Z,3.30
2019-01-09T18:31:40.493Z,2.50
2019-01-09T18:34:36.760Z,2.80
2019-01-09T18:43:58.752Z,3.60
2019-01-09T18:46:33.299Z,3.07
2019-01-09T18:49:31.589Z,4.10
2019-01-09T18:52:14.718Z,3.17
2019-01-09T18:54:31.829Z,3.70
2019-01-09T18:56:48.254Z,2.60
2019-01-09T18:58:53.329Z,2.27
2019-01-09T19:00:59.110Z,2.60
2019-01-09T19:03:06.781Z,2.33
2019-01-09T19:05:12.823Z,2.70
2019-01-09T19:07:28.883Z,2.47
2019-01-09T19:09:41.154Z,3.33
2019-01-09T19:11:50.569Z,2.93
2019-01-09T19:13:57.746Z,2.50
2019-01-09T19:16:03.135Z,3.07
2019-01-09T19:18:08.144Z,4.50
2019-01-09T19:20:14.297Z,3.87
2019-01-09T19:22:23.493Z,6.10
2019-01-09T19:24:28.329Z,4.43
2019-01-09T19:26:36.556Z,2.63
2019-01-09T19:28:41.625Z,2.60
2019-01-09T19:30:49.778Z,3.30
2019-01-09T19:32:55.070Z,3.47
2019-01-09T19:35:00.334Z,2.30
2019-01-09T19:37:09.270Z,3.17
2019-01-09T19:39:15.273Z,3.53
2019-01-09T19:41:26.962Z,3.83
2019-01-09T19:43:32.775Z,2.70
2019-01-09T19:45:57.135Z,2.63
2019-01-09T19:48:08.992Z,2.80
2019-01-09T19:50:18.886Z,3.00
2019-01-09T19:52:23.991Z,3.23
2019-01-09T19:54:33.800Z,5.67
2019-01-09T19:56:40.856Z,5.23
2019-01-09T19:58:51.735Z,3.70
2019-01-09T20:00:56.514Z,7.60
2019-01-09T20:03:02.057Z,4.20
2019-01-09T20:05:07.013Z,14.57
2019-01-09T20:07:12.182Z,6.70
2019-01-09T20:09:17.890Z,4.53
2019-01-09T20:11:26.661Z,11.93
2019-01-09T20:13:29.199Z,10.33
2019-01-09T20:15:34.121Z,7.17
2019-01-09T20:17:39.499Z,15.83
2019-01-09T20:19:44.871Z,26.60
2019-01-09T20:21:49.648Z,17.80
2019-01-09T20:23:54.385Z,8.97
2019-01-09T20:26:08.522Z,44.60
2019-01-09T20:28:15.802Z,83.90
2019-01-09T20:30:26.258Z,37.50
2019-01-09T20:32:31.042Z,22.53
2019-01-09T20:34:36.002Z,41.10
2019-01-09T20:36:41.311Z,21.73
2019-01-09T20:38:46.607Z,9.10
2019-01-09T20:40:51.786Z,11.13
2019-01-09T20:42:57.163Z,8.67
2019-01-09T20:45:03.466Z,4.97
2019-01-09T20:47:08.474Z,5.03
2019-01-09T20:49:13.471Z,4.47
2019-01-09T20:51:19.132Z,3.23
2019-01-09T20:53:24.186Z,5.27
2019-01-09T20:55:29.556Z,4.50
2019-01-09T20:57:35.046Z,4.87
2019-01-09T20:59:40.025Z,4.97
2019-01-09T21:01:45.512Z,3.67
2019-01-09T21:03:50.417Z,3.57
2019-01-09T21:05:55.822Z,3.33
2019-01-09T21:08:01.220Z,2.60
2019-01-09T21:10:06.683Z,4.07
2019-01-09T21:12:11.720Z,3.90
2019-01-09T21:14:16.943Z,4.50
2019-01-09T21:16:22.600Z,4.43
2019-01-09T21:18:27.345Z,4.20
2019-01-09T21:20:32.084Z,4.73
2019-01-09T21:22:36.904Z,6.90
2019-01-09T21:24:41.896Z,5.77
2019-01-09T21:26:47.119Z,6.00
2019-01-09T21:28:51.972Z,3.97
2019-01-09T21:30:59.966Z,6.80
2019-01-09T21:33:05.021Z,5.30
2019-01-09T21:35:12.664Z,3.90
2019-01-09T21:37:17.475Z,4.87
2019-01-09T21:39:22.806Z,6.90
2019-01-09T21:41:27.683Z,4.03
2019-01-09T21:43:32.781Z,3.60
2019-01-09T21:45:37.588Z,3.60
2019-01-09T21:47:43.364Z,3.97
2019-01-09T21:49:51.250Z,3.40
2019-01-09T21:51:56.310Z,6.17
2019-01-09T21:54:01.416Z,4.23
2019-01-09T21:56:06.600Z,6.33
2019-01-09T21:58:11.359Z,6.93
2019-01-09T22:00:19.109Z,5.70
2019-01-09T22:02:23.925Z,7.90
2019-01-09T22:04:28.733Z,6.03
2019-01-09T22:06:33.877Z,4.80
2019-01-09T22:08:38.638Z,7.33
2019-01-09T22:10:43.513Z,7.30
2019-01-09T22:12:48.245Z,6.50
2019-01-09T22:14:53.520Z,7.50
2019-01-09T22:16:58.695Z,6.90
2019-01-09T22:19:11.926Z,5.60
2019-01-09T22:21:10.634Z,7.13
2019-01-09T22:23:15.841Z,9.07
2019-01-09T22:25:20.879Z,9.30
2019-01-09T22:27:25.655Z,9.50
2019-01-09T22:29:30.540Z,8.67
2019-01-09T22:31:35.262Z,7.53
2019-01-09T22:33:40.150Z,5.73
2019-01-09T22:35:45.392Z,7.70
2019-01-09T22:37:50.226Z,5.23
2019-01-09T22:39:54.947Z,6.20
2019-01-09T22:41:59.756Z,6.03
2019-01-09T22:44:05.547Z,7.20
2019-01-09T22:46:10.412Z,4.23
2019-01-09T22:48:15.240Z,3.97
2019-01-09T22:50:21.851Z,6.60
2019-01-09T22:52:26.676Z,5.80
2019-01-09T22:54:36.235Z,5.23
2019-01-09T22:56:38.103Z,4.30
2019-01-09T22:58:42.955Z,3.20
2019-01-09T23:01:20.602Z,3.70
2019-01-09T23:03:26.133Z,3.97
2019-01-09T23:05:31.466Z,4.03
2019-01-09T23:07:36.280Z,6.00
2019-01-09T23:09:41.412Z,6.17
2019-01-09T23:11:46.207Z,6.33
2019-01-09T23:13:51.063Z,7.50
2019-01-09T23:15:56.186Z,6.97
2019-01-09T23:18:01.022Z,5.83
2019-01-09T23:20:06.871Z,8.20
2019-01-09T23:22:13.876Z,7.10
2019-01-09T23:24:18.779Z,8.33
2019-01-09T23:26:23.921Z,7.53
2019-01-09T23:28:28.764Z,7.00
2019-01-09T23:30:33.602Z,7.43
2019-01-09T23:32:38.888Z,6.97
2019-01-09T23:34:43.633Z,8.50
2019-01-09T23:36:48.869Z,6.80
2019-01-09T23:38:53.846Z,8.40
2019-01-09T23:40:58.559Z,6.23
2019-01-09T23:43:03.388Z,5.03
2019-01-09T23:45:09.504Z,4.47
2019-01-09T23:47:15.457Z,3.40
2019-01-09T23:49:20.580Z,3.60
2019-01-09T23:51:25.443Z,3.07
2019-01-09T23:53:30.346Z,3.03
2019-01-09T23:55:37.675Z,3.10
2019-01-09T23:57:42.595Z,5.00
2019-01-09T23:59:47.789Z,7.67
